createdAt,value
2019-02-02T00:02:26.318Z,23.50
2019-02-02T00:06:30.676Z,18.40
2019-02-02T00:10:35.063Z,17.63
2019-02-02T00:14:39.536Z,18.40
2019-02-02T00:18:43.883Z,18.90
2019-02-02T00:22:48.296Z,17.50
2019-02-02T00:26:52.600Z,16.83
2019-02-02T00:30:56.870Z,16.23
2019-02-02T00:35:01.293Z,18.03
2019-02-02T00:39:09.968Z,13.97
2019-02-02T00:43:14.338Z,17.70
2019-02-02T00:47:18.627Z,18.60
2019-02-02T00:51:22.952Z,14.83
2019-02-02T00:55:27.468Z,14.47
2019-02-02T00:59:31.767Z,14.23
2019-02-02T01:03:35.996Z,14.57
2019-02-02T01:07:40.402Z,13.50
2019-02-02T01:11:45.044Z,14.67
2019-02-02T01:15:49.368Z,13.93
2019-02-02T01:19:53.674Z,13.93
2019-02-02T01:23:57.940Z,16.20
2019-02-02T01:28:05.276Z,12.83
2019-02-02T01:32:08.312Z,12.23
2019-02-02T01:36:12.593Z,12.37
2019-02-02T01:40:18.816Z,13.50
2019-02-02T01:44:23.113Z,12.33
2019-02-02T01:48:27.365Z,13.37
2019-02-02T01:52:31.695Z,11.10
2019-02-02T01:56:36.028Z,10.57
2019-02-02T02:00:40.290Z,11.63
2019-02-02T02:04:44.561Z,11.73
2019-02-02T02:08:48.884Z,10.83
2019-02-02T02:12:53.258Z,9.77
2019-02-02T02:16:57.508Z,10.63
2019-02-02T02:21:01.802Z,9.93
2019-02-02T02:25:08.025Z,10.43
2019-02-02T02:29:12.594Z,14.07
2019-02-02T02:33:16.910Z,11.97
2019-02-02T02:37:21.182Z,11.27
2019-02-02T02:41:25.477Z,8.87
2019-02-02T02:45:29.765Z,8.67
2019-02-02T02:49:34.034Z,5.07
2019-02-02T02:53:38.322Z,5.00
2019-02-02T02:57:42.706Z,5.17
2019-02-02T03:01:47.032Z,5.03
2019-02-02T03:05:51.304Z,6.63
2019-02-02T03:09:55.682Z,8.00
2019-02-02T03:14:00.010Z,4.83
2019-02-02T03:18:04.356Z,4.13
2019-02-02T03:22:08.753Z,5.33
2019-02-02T03:26:13.042Z,5.83
2019-02-02T03:30:21.054Z,5.13
2019-02-02T03:34:25.297Z,5.00
2019-02-02T03:38:29.570Z,4.57
2019-02-02T03:42:33.816Z,6.13
2019-02-02T03:46:38.133Z,3.67
2019-02-02T03:50:42.472Z,4.80
2019-02-02T03:54:46.820Z,5.30
2019-02-02T03:58:51.102Z,6.33
2019-02-02T04:02:55.432Z,4.20
2019-02-02T04:06:59.728Z,3.57
2019-02-02T04:11:04.109Z,4.43
2019-02-02T04:15:08.795Z,4.37
2019-02-02T04:19:13.098Z,6.77
2019-02-02T04:23:17.399Z,2.93
2019-02-02T04:27:23.751Z,7.07
2019-02-02T04:31:28.097Z,3.30
2019-02-02T04:35:32.361Z,4.20
2019-02-02T04:39:36.614Z,6.63
2019-02-02T04:43:40.886Z,4.90
2019-02-02T04:47:45.111Z,5.10
2019-02-02T04:51:49.368Z,4.03
2019-02-02T04:55:53.611Z,3.57
2019-02-02T04:59:57.895Z,4.17
2019-02-02T05:04:02.123Z,3.70
2019-02-02T05:08:06.378Z,3.73
2019-02-02T05:12:11.537Z,3.57
2019-02-02T05:16:15.769Z,3.40
2019-02-02T05:20:20.100Z,3.67
2019-02-02T05:24:24.358Z,3.70
2019-02-02T05:28:28.915Z,3.17
2019-02-02T05:32:33.207Z,2.77
2019-02-02T05:36:37.456Z,6.33
2019-02-02T05:40:41.734Z,3.90
2019-02-02T05:44:46.007Z,4.23
2019-02-02T05:48:50.303Z,2.90
2019-02-02T05:52:54.534Z,4.10
2019-02-02T05:56:58.791Z,4.37
2019-02-02T06:01:03.080Z,4.33
2019-02-02T06:05:07.453Z,3.20
2019-02-02T06:09:11.790Z,5.80
2019-02-02T06:13:16.015Z,6.30
2019-02-02T06:17:20.405Z,3.13
2019-02-02T06:21:24.671Z,3.77
2019-02-02T06:25:28.947Z,9.73
2019-02-02T06:29:33.231Z,2.67
2019-02-02T06:33:37.496Z,3.57
2019-02-02T06:37:41.798Z,2.90
2019-02-02T06:41:46.029Z,4.17
2019-02-02T06:45:50.328Z,4.13
2019-02-02T06:49:54.614Z,2.80
2019-02-02T06:53:58.878Z,5.20
2019-02-02T06:58:03.931Z,3.63
2019-02-02T07:02:08.356Z,2.97
2019-02-02T07:06:12.612Z,3.97
2019-02-02T07:10:21.734Z,4.97
2019-02-02T07:14:26.095Z,3.20
2019-02-02T07:18:30.415Z,5.23
2019-02-02T07:22:34.948Z,4.33
2019-02-02T07:26:39.324Z,3.47
2019-02-02T07:30:43.575Z,7.43
2019-02-02T07:34:47.881Z,2.47
2019-02-02T07:38:52.137Z,4.00
2019-02-02T07:42:56.625Z,5.33
2019-02-02T07:47:00.931Z,3.53
2019-02-02T07:51:05.479Z,3.00
2019-02-02T07:55:10.884Z,3.57
2019-02-02T07:59:15.212Z,3.83
2019-02-02T08:03:19.799Z,3.17
2019-02-02T08:07:24.103Z,4.63
2019-02-02T08:11:28.386Z,4.20
2019-02-02T08:15:33.277Z,3.37
2019-02-02T08:19:37.551Z,3.50
2019-02-02T08:23:41.827Z,5.17
2019-02-02T08:27:46.058Z,6.27
2019-02-02T08:31:50.434Z,4.90
2019-02-02T08:35:54.737Z,4.47
2019-02-02T08:39:59.044Z,3.43
2019-02-02T08:44:03.369Z,5.23
2019-02-02T08:48:07.707Z,4.67
2019-02-02T08:52:12.001Z,4.03
2019-02-02T08:56:16.259Z,3.80
2019-02-02T09:00:21.016Z,3.47
2019-02-02T09:04:25.407Z,3.33
2019-02-02T09:08:29.654Z,6.63
2019-02-02T09:12:33.921Z,4.00
2019-02-02T09:16:38.209Z,6.23
2019-02-02T09:20:42.506Z,4.17
2019-02-02T09:24:46.792Z,4.43
2019-02-02T09:28:51.181Z,5.30
2019-02-02T09:32:55.553Z,4.43
2019-02-02T09:36:59.840Z,4.00
2019-02-02T09:41:04.321Z,3.23
2019-02-02T09:45:10.235Z,4.77
2019-02-02T09:49:14.534Z,3.80
2019-02-02T09:53:18.851Z,3.97
2019-02-02T09:57:23.325Z,3.67
2019-02-02T10:01:28.201Z,4.47
2019-02-02T10:05:32.697Z,3.13
2019-02-02T10:09:37.080Z,3.13
2019-02-02T10:13:41.788Z,3.37
2019-02-02T10:17:46.149Z,5.00
2019-02-02T10:21:50.553Z,3.37
2019-02-02T10:25:54.851Z,4.17
2019-02-02T10:29:59.130Z,3.80
2019-02-02T10:34:03.536Z,3.90
2019-02-02T10:38:07.974Z,2.00
2019-02-02T10:42:12.514Z,3.27
2019-02-02T10:46:16.823Z,4.67
2019-02-02T10:50:21.672Z,3.07
2019-02-02T10:54:25.978Z,2.77
2019-02-02T10:58:30.275Z,4.90
2019-02-02T11:02:34.629Z,3.30
2019-02-02T11:06:39.064Z,2.93
2019-02-02T11:10:43.454Z,3.97
2019-02-02T11:14:47.829Z,3.80
2019-02-02T11:18:52.187Z,3.43
2019-02-02T11:22:56.572Z,2.27
2019-02-02T11:27:01.123Z,3.03
2019-02-02T11:31:05.611Z,3.50
2019-02-02T11:35:11.519Z,3.13
2019-02-02T11:39:15.823Z,3.37
2019-02-02T11:43:20.183Z,2.30
2019-02-02T11:47:24.515Z,4.27
2019-02-02T11:51:28.775Z,4.00
2019-02-02T11:55:33.053Z,2.23
2019-02-02T11:59:37.405Z,2.50
2019-02-02T12:03:41.676Z,2.77
2019-02-02T12:07:46.245Z,3.50
2019-02-02T12:11:50.550Z,2.77
2019-02-02T12:15:54.983Z,3.93
2019-02-02T12:19:59.477Z,4.07
2019-02-02T12:24:13.282Z,3.37
2019-02-02T12:28:09.788Z,3.30
2019-02-02T12:32:25.904Z,2.53
2019-02-02T12:36:20.518Z,2.17
2019-02-02T12:40:25.359Z,4.10
2019-02-02T12:44:29.655Z,4.33
2019-02-02T12:48:34.080Z,3.40
2019-02-02T12:52:38.506Z,3.87
2019-02-02T12:56:42.810Z,2.23
2019-02-02T13:00:47.084Z,2.57
2019-02-02T13:04:51.325Z,1.67
2019-02-02T13:08:55.657Z,1.97
2019-02-02T13:13:00.046Z,2.37
2019-02-02T13:17:04.395Z,3.27
2019-02-02T13:21:08.682Z,3.30
2019-02-02T13:25:14.856Z,4.13
2019-02-02T13:29:19.175Z,2.10
2019-02-02T13:33:23.470Z,2.70
2019-02-02T13:37:27.839Z,3.57
2019-02-02T13:41:32.154Z,2.27
2019-02-02T13:45:36.468Z,2.70
2019-02-02T13:49:40.734Z,3.57
2019-02-02T13:53:45.062Z,3.57
2019-02-02T13:57:49.329Z,6.00
2019-02-02T14:01:53.741Z,2.10
2019-02-02T14:05:58.052Z,2.07
2019-02-02T14:10:02.781Z,4.53
2019-02-02T14:14:07.084Z,1.97
2019-02-02T14:18:11.471Z,3.70
2019-02-02T14:22:15.801Z,3.47
2019-02-02T14:26:20.111Z,3.17
2019-02-02T14:30:25.627Z,3.47
2019-02-02T14:34:39.932Z,2.67
2019-02-02T14:38:35.963Z,3.80
2019-02-02T14:42:40.405Z,4.27
2019-02-02T14:46:44.710Z,2.63
2019-02-02T14:50:48.995Z,3.23
2019-02-02T14:54:53.276Z,4.20
2019-02-02T14:58:57.605Z,5.47
2019-02-02T15:03:03.718Z,3.80
2019-02-02T15:07:08.306Z,3.87
2019-02-02T15:11:12.577Z,4.13
2019-02-02T15:15:16.885Z,4.57
2019-02-02T15:19:21.148Z,4.77
2019-02-02T15:23:25.474Z,4.27
2019-02-02T15:27:29.802Z,2.83
2019-02-02T15:31:34.990Z,3.97
2019-02-02T15:35:39.276Z,5.13
2019-02-02T15:39:43.553Z,4.67
2019-02-02T15:43:47.874Z,3.97
2019-02-02T15:47:52.210Z,5.97
2019-02-02T15:51:58.763Z,3.40
2019-02-02T15:56:03.010Z,5.40
2019-02-02T16:00:11.216Z,4.00
2019-02-02T16:04:15.484Z,3.67
2019-02-02T16:08:20.127Z,3.37
2019-02-02T16:12:24.403Z,4.77
2019-02-02T16:16:28.846Z,4.43
2019-02-02T16:20:35.537Z,4.17
2019-02-02T16:24:39.875Z,6.27
2019-02-02T16:28:44.305Z,4.77
2019-02-02T16:32:48.670Z,5.07
2019-02-02T16:36:53.041Z,4.17
2019-02-02T16:40:57.310Z,5.53
2019-02-02T16:45:01.574Z,3.77
2019-02-02T16:49:05.842Z,7.27
2019-02-02T16:53:10.102Z,11.40
2019-02-02T16:57:14.462Z,13.67
2019-02-02T17:01:18.737Z,14.33
2019-02-02T17:05:23.087Z,13.73
2019-02-02T17:09:27.396Z,16.83
2019-02-02T17:13:31.643Z,16.57
2019-02-02T17:17:35.893Z,15.10
2019-02-02T17:21:40.474Z,15.30
2019-02-02T17:25:44.859Z,12.03
2019-02-02T17:29:49.217Z,17.57
2019-02-02T17:33:53.684Z,15.57
2019-02-02T17:37:57.952Z,15.30
2019-02-02T17:42:03.937Z,11.83
2019-02-02T17:46:08.218Z,12.00
2019-02-02T17:50:14.893Z,9.77
2019-02-02T17:54:19.272Z,13.83
2019-02-02T17:58:23.585Z,9.07
2019-02-02T18:02:27.886Z,10.73
2019-02-02T18:06:32.199Z,12.23
2019-02-02T18:10:36.497Z,11.70
2019-02-02T18:14:40.812Z,11.77
2019-02-02T18:18:45.076Z,12.80
2019-02-02T18:22:49.434Z,12.73
2019-02-02T18:26:53.751Z,11.53
2019-02-02T18:30:58.063Z,13.90
2019-02-02T18:35:02.463Z,14.50
2019-02-02T18:39:09.164Z,13.90
2019-02-02T18:43:13.459Z,14.83
2019-02-02T18:47:17.715Z,17.33
2019-02-02T18:51:22.071Z,16.87
2019-02-02T18:55:29.132Z,16.47
2019-02-02T18:59:36.623Z,17.40
2019-02-02T19:03:44.062Z,15.43
2019-02-02T19:07:48.791Z,13.50
2019-02-02T19:11:53.156Z,15.13
2019-02-02T19:15:57.417Z,17.30
2019-02-02T19:20:01.663Z,17.00
2019-02-02T19:24:09.117Z,16.20
2019-02-02T19:28:12.364Z,16.13
2019-02-02T19:32:16.683Z,15.17
2019-02-02T19:36:20.981Z,13.10
2019-02-02T19:40:25.352Z,14.00
2019-02-02T19:44:29.658Z,14.47
2019-02-02T19:48:34.046Z,14.60
2019-02-02T19:52:40.490Z,15.63
2019-02-02T19:56:44.696Z,15.20
2019-02-02T20:00:49.049Z,17.10
2019-02-02T20:04:54.706Z,12.57
2019-02-02T20:08:59.027Z,14.43
2019-02-02T20:13:03.275Z,13.60
2019-02-02T20:17:07.624Z,14.30
2019-02-02T20:21:11.928Z,12.57
2019-02-02T20:25:16.294Z,17.23
2019-02-02T20:29:20.520Z,14.43
2019-02-02T20:33:24.881Z,17.00
2019-02-02T20:37:29.159Z,13.60
2019-02-02T20:41:33.485Z,14.07
2019-02-02T20:45:37.774Z,16.20
2019-02-02T20:49:42.052Z,12.10
2019-02-02T20:53:46.716Z,13.17
2019-02-02T20:57:51.132Z,13.37
2019-02-02T21:01:55.448Z,12.63
2019-02-02T21:05:59.736Z,12.53
2019-02-02T21:10:04.013Z,12.17
2019-02-02T21:14:08.407Z,11.63
2019-02-02T21:18:12.718Z,11.47
2019-02-02T21:22:16.992Z,14.80
2019-02-02T21:26:21.246Z,11.20
2019-02-02T21:30:27.850Z,11.73
2019-02-02T21:34:32.133Z,15.67
2019-02-02T21:38:36.404Z,15.10
2019-02-02T21:42:40.899Z,15.47
2019-02-02T21:46:45.274Z,15.07
2019-02-02T21:50:49.467Z,15.47
2019-02-02T21:54:53.818Z,14.37
2019-02-02T21:58:58.593Z,16.10
2019-02-02T22:03:02.940Z,14.47
2019-02-02T22:07:07.264Z,16.57
2019-02-02T22:11:11.827Z,16.30
2019-02-02T22:15:18.641Z,13.83
2019-02-02T22:19:23.725Z,13.33
2019-02-02T22:23:28.067Z,16.07
2019-02-02T22:27:32.342Z,14.07
2019-02-02T22:31:36.978Z,13.77
2019-02-02T22:35:41.259Z,14.47
2019-02-02T22:39:45.480Z,15.80
2019-02-02T22:43:49.777Z,17.37
2019-02-02T22:47:54.419Z,18.93
2019-02-02T22:52:00.007Z,17.53
2019-02-02T22:56:04.648Z,17.73
2019-02-02T23:00:29.995Z,20.20
2019-02-02T23:05:20.809Z,19.77
2019-02-02T23:10:01.919Z,18.90
2019-02-02T23:14:50.303Z,19.53
2019-02-02T23:18:54.672Z,18.00
2019-02-02T23:22:58.995Z,18.60
2019-02-02T23:27:03.300Z,16.60
2019-02-02T23:31:07.603Z,20.60
2019-02-02T23:35:12.392Z,19.77
2019-02-02T23:39:16.682Z,16.53
2019-02-02T23:43:20.971Z,17.93
2019-02-02T23:47:25.232Z,18.80
2019-02-02T23:51:29.492Z,17.63
2019-02-02T23:55:33.801Z,14.43
2019-02-02T23:59:38.111Z,18.87
